createdAt,value
2023-02-15T00:01:37.301Z,11.95
2023-02-15T00:04:05.982Z,11.93
2023-02-15T00:06:34.931Z,11.80
2023-02-15T00:09:02.462Z,12.65
2023-02-15T00:11:44.680Z,15.18
2023-02-15T00:14:21.307Z,13.38
2023-02-15T00:16:54.296Z,13.43
2023-02-15T00:19:22.743Z,14.75
2023-02-15T00:21:51.752Z,12.73
2023-02-15T00:24:20.571Z,12.68
2023-02-15T00:27:00.487Z,13.55
2023-02-15T00:29:30.541Z,13.30
2023-02-15T00:32:00.920Z,12.23
2023-02-15T00:34:31.288Z,13.68
2023-02-15T00:37:01.125Z,13.35
2023-02-15T00:39:31.180Z,13.70
2023-02-15T00:42:02.819Z,12.82
2023-02-15T00:44:32.948Z,12.65
2023-02-15T00:47:00.515Z,15.35
2023-02-15T00:49:30.669Z,13.65
2023-02-15T00:52:00.426Z,15.63
2023-02-15T00:54:30.693Z,14.77
2023-02-15T00:57:03.547Z,16.05
2023-02-15T00:59:36.775Z,15.40
2023-02-15T01:02:04.280Z,16.08
2023-02-15T01:04:37.592Z,14.65
2023-02-15T01:07:05.188Z,15.45
2023-02-15T01:09:34.258Z,14.70
2023-02-15T01:12:01.806Z,14.68
2023-02-15T01:14:32.240Z,13.73
2023-02-15T01:16:59.797Z,14.15
2023-02-15T01:19:35.346Z,13.40
2023-02-15T01:22:07.881Z,14.82
2023-02-15T01:24:38.760Z,13.95
2023-02-15T01:27:14.565Z,14.82
2023-02-15T01:29:44.755Z,13.95
2023-02-15T01:32:19.639Z,14.32
2023-02-15T01:34:51.072Z,14.80
2023-02-15T01:37:21.320Z,13.13
2023-02-15T01:42:28.576Z,13.38
2023-02-15T01:44:57.531Z,13.68
2023-02-15T01:47:41.688Z,12.95
2023-02-15T01:50:09.846Z,14.68
2023-02-15T01:52:40.363Z,15.38
2023-02-15T01:55:11.312Z,13.77
2023-02-15T01:57:39.430Z,13.70
2023-02-15T02:00:10.141Z,15.82
2023-02-15T02:02:42.648Z,14.43
2023-02-15T02:05:10.468Z,14.93
2023-02-15T02:07:45.108Z,14.55
2023-02-15T02:10:16.860Z,15.15
2023-02-15T02:12:48.585Z,14.35
2023-02-15T02:15:25.102Z,14.32
2023-02-15T02:18:06.698Z,13.40
2023-02-15T02:21:17.145Z,14.95
2023-02-15T02:24:15.011Z,13.30
2023-02-15T02:27:13.624Z,14.48
2023-02-15T02:30:18.981Z,14.77
2023-02-15T02:33:14.310Z,14.57
2023-02-15T02:36:06.353Z,15.35
2023-02-15T02:38:36.692Z,13.50
2023-02-15T02:41:39.511Z,13.57
2023-02-15T02:44:15.014Z,14.05
2023-02-15T02:46:57.766Z,14.45
2023-02-15T02:49:41.153Z,13.85
2023-02-15T02:52:36.155Z,13.30
2023-02-15T02:55:27.441Z,14.10
2023-02-15T02:58:15.609Z,12.77
2023-02-15T03:00:58.422Z,13.65
2023-02-15T03:03:42.328Z,12.38
2023-02-15T03:06:19.174Z,12.73
2023-02-15T03:08:54.761Z,12.65
2023-02-15T03:11:22.182Z,12.73
2023-02-15T03:13:51.752Z,11.77
2023-02-15T03:16:27.397Z,11.07
2023-02-15T03:19:05.515Z,12.40
2023-02-15T03:21:50.634Z,13.60
2023-02-15T03:24:26.698Z,13.25
2023-02-15T03:26:54.952Z,12.50
2023-02-15T03:29:26.884Z,12.70
2023-02-15T03:31:59.752Z,13.63
2023-02-15T03:34:27.509Z,12.82
2023-02-15T03:36:55.137Z,13.90
2023-02-15T03:39:38.613Z,14.25
2023-02-15T03:42:17.605Z,14.52
2023-02-15T03:44:59.816Z,13.68
2023-02-15T03:47:33.400Z,14.85
2023-02-15T03:50:28.795Z,13.73
2023-02-15T03:53:01.241Z,12.48
2023-02-15T03:55:29.259Z,13.50
2023-02-15T04:03:56.020Z,12.45
2023-02-15T04:06:25.714Z,12.45
2023-02-15T04:09:14.782Z,12.32
2023-02-15T04:11:44.865Z,12.52
2023-02-15T04:14:30.766Z,13.15
2023-02-15T04:17:01.280Z,13.45
2023-02-15T04:19:57.591Z,13.68
2023-02-15T04:22:45.382Z,14.98
2023-02-15T04:25:13.665Z,13.75
2023-02-15T04:27:48.935Z,13.82
2023-02-15T04:30:18.633Z,13.48
2023-02-15T04:32:46.259Z,12.80
2023-02-15T04:35:14.099Z,13.48
2023-02-15T04:37:43.195Z,12.90
2023-02-15T04:40:13.328Z,12.90
2023-02-15T04:42:43.528Z,13.07
2023-02-15T04:47:41.396Z,12.07
2023-02-15T04:50:17.819Z,12.73
2023-02-15T04:52:59.897Z,12.82
2023-02-15T04:55:49.232Z,12.25
2023-02-15T04:59:42.396Z,12.75
2023-02-15T05:05:24.258Z,12.13
2023-02-15T05:08:27.140Z,12.02
2023-02-15T05:15:18.238Z,12.25
2023-02-15T05:21:08.542Z,12.32
2023-02-15T05:24:17.419Z,12.15
2023-02-15T05:30:33.770Z,11.20
2023-02-15T05:33:01.141Z,13.75
2023-02-15T05:35:28.104Z,13.35
2023-02-15T05:37:55.411Z,11.88
2023-02-15T05:40:22.642Z,12.45
2023-02-15T05:42:49.928Z,11.75
2023-02-15T05:45:16.766Z,11.30
2023-02-15T05:47:45.106Z,10.50
2023-02-15T05:50:12.356Z,11.13
2023-02-15T05:52:40.535Z,10.63
2023-02-15T05:55:09.708Z,11.02
2023-02-15T05:57:37.253Z,11.23
2023-02-15T06:00:06.102Z,11.65
2023-02-15T06:02:39.845Z,11.82
2023-02-15T06:05:07.826Z,11.05
2023-02-15T06:07:34.694Z,13.00
2023-02-15T06:10:01.564Z,12.00
2023-02-15T06:12:28.451Z,10.73
2023-02-15T06:14:55.727Z,11.82
2023-02-15T06:17:22.831Z,11.60
2023-02-15T06:19:50.087Z,12.63
2023-02-15T06:22:17.007Z,11.75
2023-02-15T06:24:43.815Z,12.32
2023-02-15T06:27:11.280Z,11.02
2023-02-15T06:29:38.113Z,12.02
2023-02-15T06:32:05.509Z,11.02
2023-02-15T06:34:32.880Z,13.00
2023-02-15T06:36:59.997Z,11.57
2023-02-15T06:39:26.868Z,12.23
2023-02-15T06:41:53.752Z,12.80
2023-02-15T06:44:20.663Z,11.57
2023-02-15T06:46:47.519Z,12.82
2023-02-15T06:49:14.481Z,11.57
2023-02-15T06:51:41.397Z,12.13
2023-02-15T06:54:08.824Z,12.30
2023-02-15T06:56:35.667Z,11.48
2023-02-15T06:59:02.558Z,11.85
2023-02-15T07:01:29.846Z,10.20
2023-02-15T07:03:57.142Z,11.23
2023-02-15T07:06:24.408Z,10.38
2023-02-15T07:08:51.270Z,10.90
2023-02-15T07:11:36.465Z,10.57
2023-02-15T07:14:03.424Z,11.07
2023-02-15T07:16:30.472Z,11.32
2023-02-15T07:18:57.788Z,12.07
2023-02-15T07:21:24.646Z,11.73
2023-02-15T07:23:51.463Z,12.45
2023-02-15T07:26:18.290Z,11.38
2023-02-15T07:28:45.317Z,12.02
2023-02-15T07:31:12.251Z,11.85
2023-02-15T07:33:39.093Z,11.43
2023-02-15T07:36:06.479Z,11.23
2023-02-15T07:38:35.820Z,10.73
2023-02-15T07:41:05.342Z,12.20
2023-02-15T07:43:34.860Z,10.18
2023-02-15T07:46:03.304Z,11.15
2023-02-15T07:48:30.399Z,11.23
2023-02-15T07:51:06.198Z,10.60
2023-02-15T07:53:33.927Z,12.93
2023-02-15T07:56:02.564Z,11.57
2023-02-15T07:58:48.569Z,11.52
2023-02-15T08:01:16.103Z,11.23
2023-02-15T08:03:43.423Z,12.30
2023-02-15T08:06:12.437Z,11.02
2023-02-15T08:08:39.812Z,12.32
2023-02-15T08:11:26.301Z,11.15
2023-02-15T08:13:54.796Z,12.00
2023-02-15T08:16:25.746Z,12.18
2023-02-15T08:18:53.893Z,13.02
2023-02-15T08:21:21.551Z,11.93
2023-02-15T08:23:49.769Z,11.20
2023-02-15T08:26:17.834Z,11.25
2023-02-15T08:28:45.305Z,12.07
2023-02-15T08:31:14.325Z,11.15
2023-02-15T08:33:43.121Z,11.30
2023-02-15T08:36:15.216Z,11.27
2023-02-15T08:38:43.143Z,10.38
2023-02-15T08:41:22.165Z,11.13
2023-02-15T08:43:52.956Z,10.65
2023-02-15T08:46:20.550Z,10.63
2023-02-15T08:48:47.840Z,10.48
2023-02-15T08:51:20.551Z,10.55
2023-02-15T08:53:52.707Z,10.23
2023-02-15T08:56:21.975Z,11.27
2023-02-15T08:58:48.921Z,10.88
2023-02-15T09:01:19.131Z,10.85
2023-02-15T09:06:14.685Z,11.20
2023-02-15T09:08:41.560Z,10.73
2023-02-15T09:11:08.813Z,9.85
2023-02-15T09:13:35.997Z,10.18
2023-02-15T09:16:05.422Z,11.25
2023-02-15T09:18:36.360Z,11.40
2023-02-15T09:21:08.801Z,9.95
2023-02-15T09:23:36.238Z,10.38
2023-02-15T09:26:05.515Z,10.10
2023-02-15T09:28:33.717Z,9.25
2023-02-15T09:31:16.088Z,9.77
2023-02-15T09:33:44.715Z,8.60
2023-02-15T09:36:26.500Z,10.55
2023-02-15T09:39:20.320Z,9.65
2023-02-15T09:42:10.685Z,8.82
2023-02-15T09:45:11.075Z,10.00
2023-02-15T09:50:58.653Z,8.85
2023-02-15T09:54:15.090Z,10.07
2023-02-15T09:56:57.285Z,8.40
2023-02-15T09:59:37.786Z,9.05
2023-02-15T10:02:17.237Z,9.88
2023-02-15T10:05:05.373Z,9.97
2023-02-15T10:07:43.895Z,8.50
2023-02-15T10:10:34.647Z,9.52
2023-02-15T10:13:10.559Z,9.70
2023-02-15T10:15:43.944Z,9.50
2023-02-15T10:18:45.122Z,9.35
2023-02-15T10:21:30.456Z,9.80
2023-02-15T10:24:24.989Z,10.27
2023-02-15T10:26:52.426Z,8.55
2023-02-15T10:29:25.721Z,10.43
2023-02-15T10:32:18.423Z,10.63
2023-02-15T10:34:52.672Z,11.18
2023-02-15T10:37:38.194Z,10.43
2023-02-15T10:40:11.964Z,10.55
2023-02-15T10:43:12.483Z,10.75
2023-02-15T10:46:08.089Z,10.18
2023-02-15T10:48:52.507Z,10.15
2023-02-15T10:52:00.499Z,10.40
2023-02-15T10:55:01.812Z,10.25
2023-02-15T10:57:44.445Z,11.48
2023-02-15T11:01:07.477Z,10.95
2023-02-15T11:03:43.651Z,10.57
2023-02-15T11:06:14.278Z,11.18
2023-02-15T11:08:46.327Z,10.57
2023-02-15T11:11:23.277Z,11.43
2023-02-15T11:13:56.138Z,10.07
2023-02-15T11:16:32.533Z,10.40
2023-02-15T11:19:06.828Z,10.70
2023-02-15T11:21:46.942Z,9.65
2023-02-15T11:24:27.053Z,11.18
2023-02-15T11:27:09.627Z,10.38
2023-02-15T11:30:14.590Z,10.43
2023-02-15T11:33:02.630Z,10.07
2023-02-15T11:36:10.044Z,9.68
2023-02-15T11:38:44.590Z,10.77
2023-02-15T11:41:37.272Z,10.35
2023-02-15T11:44:52.836Z,10.45
2023-02-15T11:47:43.909Z,10.70
2023-02-15T11:50:51.212Z,11.15
2023-02-15T11:53:25.905Z,9.18
2023-02-15T11:55:53.859Z,9.75
2023-02-15T11:59:04.722Z,10.90
2023-02-15T12:01:44.575Z,10.75
2023-02-15T12:04:41.710Z,10.98
2023-02-15T12:07:13.421Z,10.80
2023-02-15T12:10:15.288Z,10.45
2023-02-15T12:12:43.027Z,10.45
2023-02-15T12:15:15.494Z,10.60
2023-02-15T12:17:54.431Z,10.82
2023-02-15T12:20:21.847Z,9.93
2023-02-15T12:23:05.656Z,10.80
2023-02-15T12:25:52.973Z,10.93
2023-02-15T12:28:48.175Z,10.73
2023-02-15T12:31:41.631Z,11.25
2023-02-15T12:34:36.209Z,10.43
2023-02-15T12:37:23.991Z,10.93
2023-02-15T12:40:06.238Z,9.77
2023-02-15T12:43:01.860Z,10.75
2023-02-15T12:45:37.907Z,11.10
2023-02-15T12:48:24.009Z,10.50
2023-02-15T12:51:08.127Z,10.50
2023-02-15T12:53:46.756Z,10.90
2023-02-15T13:03:44.687Z,10.23
2023-02-15T13:06:54.678Z,11.10
2023-02-15T13:12:40.318Z,10.13
2023-02-15T13:15:57.390Z,10.40
2023-02-15T13:22:06.354Z,10.25
2023-02-15T13:25:14.697Z,10.25
2023-02-15T13:27:59.362Z,10.20
2023-02-15T13:30:38.532Z,9.90
2023-02-15T13:33:48.216Z,9.95
2023-02-15T13:36:33.357Z,10.02
2023-02-15T13:39:55.612Z,10.05
2023-02-15T13:42:25.422Z,10.18
2023-02-15T13:45:45.674Z,10.13
2023-02-15T13:48:45.637Z,10.00
2023-02-15T13:51:51.067Z,9.18
2023-02-15T13:54:38.174Z,10.40
2023-02-15T13:57:39.965Z,8.85
2023-02-15T14:00:37.755Z,9.43
2023-02-15T14:03:47.095Z,8.90
2023-02-15T14:06:53.079Z,9.35
2023-02-15T14:09:39.978Z,9.35
2023-02-15T14:12:10.567Z,9.40
2023-02-15T14:15:12.348Z,9.40
2023-02-15T14:18:14.970Z,9.38
2023-02-15T14:24:12.116Z,9.75
2023-02-15T14:27:24.405Z,9.77
2023-02-15T14:29:57.050Z,8.38
2023-02-15T14:32:50.893Z,9.52
2023-02-15T14:35:25.220Z,8.60
2023-02-15T14:38:13.302Z,8.75
2023-02-15T14:41:18.585Z,8.88
2023-02-15T14:43:51.852Z,8.93
2023-02-15T14:46:46.338Z,8.35
2023-02-15T14:49:24.192Z,8.82
2023-02-15T14:51:51.546Z,10.00
2023-02-15T14:54:18.781Z,8.30
2023-02-15T14:56:46.974Z,9.68
2023-02-15T14:59:22.353Z,9.23
2023-02-15T15:02:23.947Z,8.77
2023-02-15T15:04:57.400Z,9.38
2023-02-15T15:07:46.626Z,9.48
2023-02-15T15:10:20.847Z,9.63
2023-02-15T15:12:51.701Z,10.43
2023-02-15T15:15:27.686Z,9.10
2023-02-15T15:18:08.616Z,10.73
2023-02-15T15:20:52.637Z,9.68
2023-02-15T15:23:19.975Z,10.50
2023-02-15T15:26:00.809Z,9.82
2023-02-15T15:28:35.531Z,9.63
2023-02-15T15:31:17.540Z,9.52
2023-02-15T15:34:06.435Z,9.10
2023-02-15T15:37:37.745Z,8.95
2023-02-15T15:40:52.980Z,9.55
2023-02-15T15:43:38.324Z,10.55
2023-02-15T15:46:14.764Z,8.95
2023-02-15T15:48:43.213Z,10.15
2023-02-15T15:51:21.516Z,9.38
2023-02-15T15:53:54.168Z,9.20
2023-02-15T15:56:25.788Z,8.93
2023-02-15T15:59:00.423Z,9.48
2023-02-15T16:01:29.878Z,9.98
2023-02-15T16:03:59.012Z,10.05
2023-02-15T16:06:30.683Z,10.15
2023-02-15T16:08:58.293Z,10.68
2023-02-15T16:11:31.001Z,10.15
2023-02-15T16:13:58.281Z,10.55
2023-02-15T16:16:29.382Z,10.13
2023-02-15T16:19:00.586Z,10.57
2023-02-15T16:21:35.454Z,10.60
2023-02-15T16:24:25.657Z,10.35
2023-02-15T16:26:52.891Z,9.10
2023-02-15T16:29:30.782Z,11.13
2023-02-15T16:32:21.549Z,11.60
2023-02-15T16:34:56.799Z,10.73
2023-02-15T16:37:32.442Z,10.48
2023-02-15T16:39:59.835Z,12.50
2023-02-15T16:42:27.299Z,11.38
2023-02-15T16:45:06.906Z,11.23
2023-02-15T16:47:39.884Z,12.27
2023-02-15T16:50:07.597Z,11.32
2023-02-15T16:52:35.542Z,12.30
2023-02-15T16:55:06.348Z,14.18
2023-02-15T16:57:39.100Z,15.13
2023-02-15T17:00:19.359Z,15.63
2023-02-15T17:03:15.709Z,13.32
2023-02-15T17:05:42.998Z,14.88
2023-02-15T17:08:24.383Z,13.52
2023-02-15T17:11:01.025Z,14.13
2023-02-15T17:13:29.732Z,13.05
2023-02-15T17:16:00.619Z,13.75
2023-02-15T17:18:31.643Z,11.57
2023-02-15T17:21:02.806Z,14.52
2023-02-15T17:23:49.473Z,17.38
2023-02-15T17:26:20.041Z,17.65
2023-02-15T17:28:51.360Z,19.10
2023-02-15T17:31:20.305Z,18.15
2023-02-15T17:33:48.481Z,18.48
2023-02-15T17:36:23.327Z,17.40
2023-02-15T17:38:59.511Z,16.33
2023-02-15T17:41:28.573Z,16.02
2023-02-15T17:43:55.960Z,17.02
2023-02-15T17:46:23.686Z,16.88
2023-02-15T17:48:56.186Z,16.50
2023-02-15T17:51:23.874Z,18.52
2023-02-15T17:54:10.029Z,20.95
2023-02-15T17:56:38.575Z,27.77
2023-02-15T17:59:07.715Z,26.52
2023-02-15T18:01:55.339Z,25.50
2023-02-15T18:04:41.454Z,22.65
2023-02-15T18:07:31.774Z,21.88
2023-02-15T18:12:44.663Z,17.50
2023-02-15T18:15:13.124Z,16.17
2023-02-15T18:17:44.614Z,16.85
2023-02-15T18:20:24.465Z,14.75
2023-02-15T18:22:52.290Z,14.20
2023-02-15T18:25:22.663Z,14.88
2023-02-15T18:30:19.400Z,13.77
2023-02-15T18:32:48.224Z,14.38
2023-02-15T18:35:17.603Z,14.43
2023-02-15T18:37:48.214Z,14.67
2023-02-15T18:40:20.768Z,15.00
2023-02-15T18:42:49.493Z,14.68
2023-02-15T18:45:18.932Z,15.35
2023-02-15T18:47:49.045Z,14.15
2023-02-15T18:50:18.478Z,13.93
2023-02-15T18:52:47.663Z,14.80
2023-02-15T18:55:21.920Z,15.95
2023-02-15T18:57:50.943Z,15.90
2023-02-15T19:00:25.267Z,16.20
2023-02-15T19:02:54.036Z,17.35
2023-02-15T19:05:22.585Z,17.60
2023-02-15T19:07:50.982Z,17.17
2023-02-15T19:10:21.181Z,17.52
2023-02-15T19:12:49.347Z,18.48
2023-02-15T19:15:19.989Z,18.90
2023-02-15T19:17:47.296Z,21.27
2023-02-15T19:20:20.795Z,23.45
2023-02-15T19:22:49.642Z,22.67
2023-02-15T19:25:24.154Z,22.08
2023-02-15T19:27:52.430Z,20.85
2023-02-15T19:30:32.639Z,21.30
2023-02-15T19:33:02.733Z,19.05
2023-02-15T19:35:34.201Z,19.20
2023-02-15T19:38:07.624Z,19.27
2023-02-15T19:40:35.813Z,18.52
2023-02-15T19:43:04.433Z,17.83
2023-02-15T19:45:35.168Z,18.15
2023-02-15T19:48:02.722Z,16.77
2023-02-15T19:50:31.355Z,16.15
2023-02-15T19:52:58.866Z,17.73
2023-02-15T19:55:34.471Z,17.63
2023-02-15T19:58:11.947Z,16.60
2023-02-15T20:00:41.080Z,17.52
2023-02-15T20:03:09.430Z,18.45
2023-02-15T20:05:44.858Z,18.30
2023-02-15T20:08:21.490Z,17.75
2023-02-15T20:11:07.307Z,17.77
2023-02-15T20:13:34.953Z,17.38
2023-02-15T20:16:05.804Z,18.33
2023-02-15T20:18:36.082Z,18.02
2023-02-15T20:21:04.787Z,18.25
2023-02-15T20:23:37.344Z,16.98
2023-02-15T20:26:18.921Z,17.45
2023-02-15T20:28:49.254Z,14.98
2023-02-15T20:33:46.438Z,15.57
2023-02-15T20:36:16.257Z,17.15
2023-02-15T20:38:47.348Z,17.02
2023-02-15T20:41:37.184Z,17.40
2023-02-15T20:44:26.482Z,15.38
2023-02-15T20:46:56.470Z,16.40
2023-02-15T20:49:25.475Z,18.38
2023-02-15T20:51:54.236Z,16.85
2023-02-15T20:54:27.086Z,17.00
2023-02-15T20:56:54.536Z,17.63
2023-02-15T20:59:28.237Z,18.48
2023-02-15T21:02:03.478Z,18.50
2023-02-15T21:04:32.671Z,17.42
2023-02-15T21:07:02.434Z,16.13
2023-02-15T21:09:32.634Z,17.13
2023-02-15T21:12:02.576Z,17.27
2023-02-15T21:14:32.370Z,16.35
2023-02-15T21:16:59.985Z,18.90
2023-02-15T21:19:28.661Z,20.83
2023-02-15T21:21:56.275Z,25.65
2023-02-15T21:24:30.080Z,22.38
2023-02-15T21:27:00.463Z,21.48
2023-02-15T21:29:29.180Z,20.83
2023-02-15T21:32:00.495Z,20.33
2023-02-15T21:34:27.875Z,20.38
2023-02-15T21:36:55.175Z,21.88
2023-02-15T21:39:25.382Z,20.67
2023-02-15T21:42:14.490Z,18.73
2023-02-15T21:45:05.293Z,20.17
2023-02-15T21:47:50.524Z,18.48
2023-02-15T21:50:43.548Z,18.40
2023-02-15T21:53:15.669Z,17.40
2023-02-15T21:55:43.004Z,17.98
2023-02-15T21:58:20.141Z,17.30
2023-02-15T22:00:47.865Z,17.33
2023-02-15T22:03:15.278Z,17.35
2023-02-15T22:05:42.708Z,15.93
2023-02-15T22:08:13.364Z,16.13
2023-02-15T22:10:41.078Z,16.48
2023-02-15T22:13:22.497Z,16.67
2023-02-15T22:15:49.862Z,16.05
2023-02-15T22:18:23.668Z,17.17
2023-02-15T22:20:51.235Z,16.80
2023-02-15T22:23:18.640Z,17.13
2023-02-15T22:25:54.910Z,15.38
2023-02-15T22:28:26.287Z,15.20
2023-02-15T22:30:53.593Z,15.13
2023-02-15T22:33:29.684Z,16.90
2023-02-15T22:35:57.218Z,14.60
2023-02-15T22:38:24.805Z,15.15
2023-02-15T22:40:53.775Z,14.88
2023-02-15T22:43:28.751Z,15.70
2023-02-15T22:46:00.831Z,16.23
2023-02-15T22:48:28.427Z,15.63
2023-02-15T22:50:55.891Z,14.73
2023-02-15T22:53:23.303Z,16.27
2023-02-15T22:55:50.750Z,16.13
2023-02-15T22:58:22.265Z,16.10
2023-02-15T23:00:49.548Z,15.02
2023-02-15T23:03:18.342Z,15.48
2023-02-15T23:05:46.435Z,16.35
2023-02-15T23:08:14.171Z,15.23
2023-02-15T23:10:43.348Z,16.50
2023-02-15T23:13:25.957Z,16.20
2023-02-15T23:15:58.254Z,18.15
2023-02-15T23:18:25.619Z,16.73
2023-02-15T23:20:53.137Z,15.55
2023-02-15T23:23:26.140Z,16.77
2023-02-15T23:25:53.657Z,16.70
2023-02-15T23:28:28.313Z,17.83
2023-02-15T23:30:55.731Z,16.13
2023-02-15T23:33:26.370Z,15.73
2023-02-15T23:35:53.656Z,16.05
2023-02-15T23:38:25.569Z,15.30
2023-02-15T23:41:16.489Z,15.90
2023-02-15T23:43:46.705Z,16.25
2023-02-15T23:46:40.916Z,15.63
2023-02-15T23:49:15.201Z,15.80
2023-02-15T23:51:53.923Z,15.60
2023-02-15T23:54:23.777Z,17.23
2023-02-15T23:56:54.037Z,16.83
2023-02-15T23:59:23.644Z,16.10
